Time;durP1;ratioP1;P1;durP2;ratioP2;P2;SDS_P1;SDS_P2;PMS_P1;PMS_P2;Temp;Humidity;BMP_temperature;BMP_pressure;BME280_temperature;BME280_humidity;BME280_pressure;Samples;Min_cycle;Max_cycle;Signal;HPM_P1;HPM_P2
2024/03/01 00:00:22;;;;;;;;;;;10.60;54.30;;;;;;5084340;28;19931;-55
2024/03/01 00:02:52;;;;;;;;;;;10.60;54.30;;;;;;5082040;28;19943;-57
2024/03/01 00:05:20;;;;;;;;;;;10.60;54.40;;;;;;5074129;28;19931;-57
2024/03/01 00:07:48;;;;;;;;;;;10.60;54.40;;;;;;5066623;28;20298;-55
2024/03/01 00:10:16;;;;;;;;;;;10.60;54.40;;;;;;5082253;28;19993;-56
2024/03/01 00:12:45;;;;;;;;;;;10.60;54.40;;;;;;5084295;28;19928;-59
2024/03/01 00:15:13;;;;;;;;;;;10.60;54.40;;;;;;5077850;28;19960;-56
2024/03/01 00:17:41;;;;;;;;;;;10.50;54.30;;;;;;5084968;28;19938;-56
2024/03/01 00:20:12;;;;;;;;;;;10.50;55.00;;;;;;5078513;28;19959;-56
2024/03/01 00:22:40;;;;;;;;;;;10.50;54.30;;;;;;5088541;27;19939;-54
2024/03/01 00:25:09;;;;;;;;;;;10.50;54.90;;;;;;5083113;28;19924;-55
2024/03/01 00:27:38;;;;;;;;;;;10.50;54.30;;;;;;5080922;28;20239;-52
2024/03/01 00:30:07;;;;;;;;;;;10.40;54.40;;;;;;5083297;28;19928;-55
2024/03/01 00:32:35;;;;;;;;;;;10.40;54.40;;;;;;5080270;28;19935;-56
2024/03/01 00:35:04;;;;;;;;;;;10.40;54.40;;;;;;5080549;28;20353;-57
2024/03/01 00:37:33;;;;;;;;;;;10.40;54.40;;;;;;5073914;28;20488;-55
2024/03/01 00:40:01;;;;;;;;;;;10.40;54.40;;;;;;5081047;28;20343;-53
2024/03/01 00:42:29;;;;;;;;;;;10.40;54.50;;;;;;5080943;28;20027;-53
2024/03/01 00:44:57;;;;;;;;;;;10.40;54.40;;;;;;5080691;28;19928;-57
2024/03/01 00:47:25;;;;;;;;;;;10.40;54.50;;;;;;5073005;28;19935;-54
2024/03/01 00:49:54;;;;;;;;;;;10.40;54.50;;;;;;5080435;28;20295;-53
2024/03/01 00:52:23;;;;;;;;;;;10.40;54.40;;;;;;5080458;28;19968;-54
2024/03/01 00:54:53;;;;;;;;;;;10.30;54.40;;;;;;5083553;28;19928;-54
2024/03/01 00:57:21;;;;;;;;;;;10.30;54.40;;;;;;5073932;28;19928;-57
2024/03/01 00:59:49;;;;;;;;;;;10.30;54.40;;;;;;5086437;28;19932;-56
2024/03/01 01:02:17;;;;;;;;;;;10.20;54.40;;;;;;5083959;28;19942;-57
2024/03/01 01:04:45;;;;;;;;;;;10.20;54.40;;;;;;5081790;28;20373;-56
2024/03/01 01:07:13;;;;;;;;;;;10.20;54.40;;;;;;5075096;28;20274;-57
2024/03/01 01:09:42;;;;;;;;;;;10.20;54.50;;;;;;5064820;28;20047;-56
2024/03/01 01:12:11;;;;;;;;;;;10.20;54.50;;;;;;5084690;28;20403;-55
2024/03/01 01:14:39;;;;;;;;;;;10.20;54.50;;;;;;5077681;28;19973;-53
2024/03/01 01:17:07;;;;;;;;;;;10.20;54.50;;;;;;5082089;28;20720;-55
2024/03/01 01:19:35;;;;;;;;;;;10.20;54.50;;;;;;5080277;28;19983;-58
2024/03/01 01:22:04;;;;;;;;;;;10.20;54.50;;;;;;5084005;28;19928;-56
2024/03/01 01:24:32;;;;;;;;;;;10.20;54.70;;;;;;5066792;28;20022;-57
2024/03/01 01:27:00;;;;;;;;;;;10.20;54.60;;;;;;5083260;28;21622;-53
2024/03/01 01:29:29;;;;;;;;;;;10.30;54.70;;;;;;5078828;28;20660;-51
2024/03/01 01:31:58;;;;;;;;;;;10.30;54.80;;;;;;5083686;28;20019;-54
2024/03/01 01:34:26;;;;;;;;;;;10.40;54.90;;;;;;5081803;28;19943;-56
2024/03/01 01:36:54;;;;;;;;;;;10.40;54.90;;;;;;5088998;28;19945;-55
2024/03/01 01:39:22;;;;;;;;;;;10.50;55.00;;;;;;5073439;28;19935;-57
2024/03/01 01:41:51;;;;;;;;;;;10.50;54.90;;;;;;5080325;28;19924;-51
2024/03/01 01:44:19;;;;;;;;;;;10.60;55.00;;;;;;5082914;28;20501;-54
2024/03/01 01:46:49;;;;;;;;;;;10.60;55.00;;;;;;5081669;28;19989;-55
2024/03/01 01:49:17;;;;;;;;;;;10.70;55.00;;;;;;5077599;28;19928;-57
2024/03/01 01:51:46;;;;;;;;;;;10.80;54.90;;;;;;5079103;28;19932;-56
2024/03/01 01:54:14;;;;;;;;;;;10.90;54.90;;;;;;5082473;28;20023;-56
2024/03/01 01:56:43;;;;;;;;;;;10.90;54.80;;;;;;5081375;28;19924;-53
2024/03/01 01:59:13;;;;;;;;;;;11.00;54.80;;;;;;5070741;28;20362;-53
2024/03/01 02:01:41;;;;;;;;;;;11.10;54.80;;;;;;5086726;28;19924;-58
2024/03/01 02:04:11;;;;;;;;;;;11.10;54.80;;;;;;5079986;28;19977;-53
2024/03/01 02:06:44;;;;;;;;;;;11.10;55.00;;;;;;5082952;27;19963;-55
2024/03/01 02:09:13;;;;;;;;;;;11.10;55.00;;;;;;5078452;28;19928;-55
2024/03/01 02:11:41;;;;;;;;;;;11.10;55.00;;;;;;5087580;28;19932;-57
2024/03/01 02:14:10;;;;;;;;;;;11.10;55.00;;;;;;5083639;28;19962;-56
2024/03/01 02:16:37;;;;;;;;;;;11.20;55.00;;;;;;5088381;27;19928;-53
2024/03/01 02:19:07;;;;;;;;;;;11.20;54.80;;;;;;5082804;28;20020;-54
2024/03/01 02:21:39;;;;;;;;;;;11.20;54.60;;;;;;5084248;28;19927;-56
2024/03/01 02:24:09;;;;;;;;;;;11.20;54.60;;;;;;5083819;28;19928;-58
2024/03/01 02:26:37;;;;;;;;;;;11.20;54.70;;;;;;5089928;28;19931;-54
2024/03/01 02:29:05;;;;;;;;;;;11.20;54.60;;;;;;5087123;27;19927;-54
2024/03/01 02:31:34;;;;;;;;;;;11.20;54.50;;;;;;5082733;28;19935;-55
2024/03/01 02:34:02;;;;;;;;;;;11.30;54.50;;;;;;5082306;28;20290;-56
2024/03/01 02:36:30;;;;;;;;;;;11.30;54.50;;;;;;5095597;27;19923;-54
2024/03/01 02:38:58;;;;;;;;;;;11.20;54.50;;;;;;5087200;27;19932;-55
2024/03/01 02:41:28;;;;;;;;;;;11.20;54.70;;;;;;5076678;28;20298;-55
2024/03/01 02:43:56;;;;;;;;;;;11.20;54.60;;;;;;5080951;28;19959;-56
2024/03/01 02:46:24;;;;;;;;;;;11.30;54.70;;;;;;5084297;28;19928;-54
2024/03/01 02:48:52;;;;;;;;;;;11.30;54.50;;;;;;5085385;28;19966;-55
2024/03/01 02:51:20;;;;;;;;;;;11.30;54.50;;;;;;5079801;28;19934;-54
2024/03/01 02:53:48;;;;;;;;;;;11.30;54.50;;;;;;5083889;28;19935;-52
2024/03/01 02:56:16;;;;;;;;;;;11.20;54.40;;;;;;5083654;28;19981;-55
2024/03/01 02:58:45;;;;;;;;;;;11.20;54.60;;;;;;5085199;28;19928;-55
2024/03/01 03:01:14;;;;;;;;;;;11.20;54.50;;;;;;5079768;28;20325;-55
2024/03/01 03:03:42;;;;;;;;;;;11.30;54.50;;;;;;5081058;28;20032;-55
2024/03/01 03:06:10;;;;;;;;;;;11.30;54.50;;;;;;5082818;28;20648;-55
2024/03/01 03:08:38;;;;;;;;;;;11.30;54.50;;;;;;5084381;28;20037;-55
2024/03/01 03:11:08;;;;;;;;;;;11.30;54.60;;;;;;5078582;28;19932;-55
2024/03/01 03:13:36;;;;;;;;;;;11.30;54.50;;;;;;5082899;28;19950;-55
2024/03/01 03:16:06;;;;;;;;;;;11.30;54.50;;;;;;5085629;28;20004;-58
2024/03/01 03:18:34;;;;;;;;;;;11.30;54.40;;;;;;5082246;28;19936;-57
2024/03/01 03:21:02;;;;;;;;;;;11.30;54.40;;;;;;5089363;28;19937;-56
2024/03/01 03:23:30;;;;;;;;;;;11.20;54.40;;;;;;5079820;28;19928;-52
2024/03/01 03:25:58;;;;;;;;;;;11.20;54.40;;;;;;5083278;28;19928;-56
2024/03/01 03:28:27;;;;;;;;;;;11.20;54.40;;;;;;5081412;28;19939;-55
2024/03/01 03:30:55;;;;;;;;;;;11.20;54.50;;;;;;5081219;28;19931;-54
2024/03/01 03:33:24;;;;;;;;;;;11.10;54.40;;;;;;5076249;28;19932;-55
2024/03/01 03:35:52;;;;;;;;;;;11.00;54.40;;;;;;5081819;28;19928;-56
2024/03/01 03:38:20;;;;;;;;;;;11.00;54.40;;;;;;5085586;28;19928;-56
2024/03/01 03:40:49;;;;;;;;;;;10.90;54.40;;;;;;5082799;28;19954;-55
2024/03/01 03:43:17;;;;;;;;;;;10.90;54.60;;;;;;5073414;28;20018;-56
2024/03/01 03:45:45;;;;;;;;;;;10.80;54.50;;;;;;5085027;28;19924;-56
2024/03/01 03:48:13;;;;;;;;;;;10.90;54.70;;;;;;5086461;28;20738;-55
2024/03/01 03:50:43;;;;;;;;;;;10.80;54.50;;;;;;5083666;28;20382;-56
2024/03/01 03:53:12;;;;;;;;;;;10.80;54.40;;;;;;5082336;28;20065;-53
2024/03/01 03:55:40;;;;;;;;;;;10.80;54.40;;;;;;5082930;28;19955;-56
2024/03/01 03:58:08;;;;;;;;;;;10.70;54.30;;;;;;5077490;28;19931;-54
2024/03/01 04:00:36;;;;;;;;;;;10.70;54.40;;;;;;5083676;27;19967;-56
2024/03/01 04:03:05;;;;;;;;;;;10.60;54.40;;;;;;5084205;28;19935;-52
2024/03/01 04:05:33;;;;;;;;;;;10.60;54.40;;;;;;5075671;28;21432;-56
2024/03/01 04:08:01;;;;;;;;;;;10.60;54.50;;;;;;5082665;28;19978;-54
2024/03/01 04:10:30;;;;;;;;;;;10.50;54.50;;;;;;5085480;28;19951;-55
2024/03/01 04:12:58;;;;;;;;;;;10.50;54.60;;;;;;5076916;28;20661;-55
2024/03/01 04:15:26;;;;;;;;;;;10.50;54.50;;;;;;5074546;28;19932;-55
2024/03/01 04:17:54;;;;;;;;;;;10.50;54.70;;;;;;5063503;28;20402;-54
2024/03/01 04:20:22;;;;;;;;;;;10.40;54.50;;;;;;5083604;27;20314;-57
2024/03/01 04:22:50;;;;;;;;;;;10.40;54.50;;;;;;5084157;27;20521;-55
2024/03/01 04:25:22;;;;;;;;;;;10.30;54.40;;;;;;5081408;28;19935;-56
2024/03/01 04:27:50;;;;;;;;;;;10.30;54.50;;;;;;5062771;28;20015;-55
2024/03/01 04:30:18;;;;;;;;;;;10.20;54.50;;;;;;5082372;28;20424;-53
2024/03/01 04:32:46;;;;;;;;;;;10.20;54.40;;;;;;5081278;28;20704;-55
2024/03/01 04:35:15;;;;;;;;;;;10.10;54.40;;;;;;5076774;28;19928;-54
2024/03/01 04:37:44;;;;;;;;;;;10.10;54.50;;;;;;5084768;28;19928;-56
2024/03/01 04:40:12;;;;;;;;;;;10.10;54.50;;;;;;5081018;28;19924;-56
2024/03/01 04:42:42;;;;;;;;;;;10.00;54.50;;;;;;5077742;28;20475;-56
2024/03/01 04:45:10;;;;;;;;;;;10.00;54.50;;;;;;5079219;28;19928;-55
2024/03/01 04:47:38;;;;;;;;;;;9.90;54.60;;;;;;5084230;28;19927;-54
2024/03/01 04:50:07;;;;;;;;;;;9.90;54.50;;;;;;5087356;28;19976;-54
2024/03/01 04:52:35;;;;;;;;;;;9.90;54.50;;;;;;5085939;28;19935;-56
2024/03/01 04:55:05;;;;;;;;;;;9.80;54.50;;;;;;5090953;28;19985;-54
2024/03/01 04:57:34;;;;;;;;;;;9.70;54.60;;;;;;5073067;28;19959;-55
2024/03/01 05:00:03;;;;;;;;;;;9.70;54.50;;;;;;5081828;28;19932;-55
2024/03/01 05:02:32;;;;;;;;;;;9.70;54.60;;;;;;5077918;28;20279;-53
2024/03/01 05:05:00;;;;;;;;;;;9.60;54.60;;;;;;5079889;28;19935;-56
2024/03/01 05:07:28;;;;;;;;;;;9.60;54.70;;;;;;5073578;28;20395;-54
2024/03/01 05:09:56;;;;;;;;;;;9.50;54.60;;;;;;5080114;28;20331;-54
2024/03/01 05:12:25;;;;;;;;;;;9.50;54.60;;;;;;5079619;28;19939;-52
2024/03/01 05:14:53;;;;;;;;;;;9.40;54.60;;;;;;5082572;28;20402;-53
2024/03/01 05:17:22;;;;;;;;;;;9.40;54.60;;;;;;5076942;28;19935;-53
2024/03/01 05:19:50;;;;;;;;;;;9.40;54.80;;;;;;5084987;28;19932;-53
2024/03/01 05:22:18;;;;;;;;;;;9.30;54.60;;;;;;5083800;28;19928;-54
2024/03/01 05:24:47;;;;;;;;;;;9.30;54.60;;;;;;5077608;28;19931;-54
2024/03/01 05:27:15;;;;;;;;;;;9.20;54.70;;;;;;5075679;28;20374;-56
2024/03/01 05:29:43;;;;;;;;;;;9.30;54.70;;;;;;5082080;28;19924;-55
2024/03/01 05:32:11;;;;;;;;;;;9.20;54.70;;;;;;5079488;28;19943;-56
2024/03/01 05:34:41;;;;;;;;;;;9.20;54.80;;;;;;5076722;28;20043;-52
2024/03/01 05:37:09;;;;;;;;;;;9.20;54.80;;;;;;5074189;28;19928;-55
2024/03/01 05:39:38;;;;;;;;;;;9.20;54.80;;;;;;5083332;28;19971;-58
2024/03/01 05:42:07;;;;;;;;;;;9.10;54.70;;;;;;5084880;28;19924;-55
2024/03/01 05:44:35;;;;;;;;;;;9.20;55.20;;;;;;5078808;28;19928;-57
2024/03/01 05:47:03;;;;;;;;;;;9.20;55.10;;;;;;5084606;28;20011;-58
2024/03/01 05:49:31;;;;;;;;;;;9.20;54.80;;;;;;5034991;28;21378;-58
2024/03/01 05:52:01;;;;;;;;;;;9.30;54.80;;;;;;5069644;28;20014;-59
2024/03/01 05:54:35;;;;;;;;;;;9.30;54.80;;;;;;5071987;28;19935;-56
2024/03/01 05:57:11;;;;;;;;;;;9.40;54.80;;;;;;5078748;27;19931;-55
2024/03/01 05:59:41;;;;;;;;;;;9.40;54.70;;;;;;5077475;27;22626;-54
2024/03/01 06:02:12;;;;;;;;;;;9.50;54.90;;;;;;5079218;27;19995;-55
2024/03/01 06:04:41;;;;;;;;;;;9.50;54.70;;;;;;5084709;27;20678;-57
2024/03/01 06:07:10;;;;;;;;;;;9.50;54.70;;;;;;5081572;27;20403;-53
2024/03/01 06:09:40;;;;;;;;;;;9.50;54.70;;;;;;5084975;27;19966;-54
2024/03/01 06:12:10;;;;;;;;;;;9.50;54.70;;;;;;5084783;28;19974;-55
2024/03/01 06:14:41;;;;;;;;;;;9.50;54.70;;;;;;5076261;28;19939;-53
2024/03/01 06:17:10;;;;;;;;;;;9.50;54.70;;;;;;5079126;28;19942;-53
2024/03/01 06:19:39;;;;;;;;;;;9.50;54.70;;;;;;5079841;28;21283;-58
2024/03/01 06:22:07;;;;;;;;;;;9.50;54.70;;;;;;5062339;28;19932;-56
2024/03/01 06:24:38;;;;;;;;;;;9.50;54.70;;;;;;5082677;28;19939;-55
2024/03/01 06:27:06;;;;;;;;;;;9.40;55.40;;;;;;5072923;28;20026;-54
2024/03/01 06:29:34;;;;;;;;;;;9.30;54.60;;;;;;5077488;28;22215;-58
2024/03/01 06:32:03;;;;;;;;;;;9.30;54.70;;;;;;5076350;28;19924;-57
2024/03/01 06:34:31;;;;;;;;;;;9.30;54.80;;;;;;5076588;28;19932;-54
2024/03/01 06:37:00;;;;;;;;;;;9.30;54.90;;;;;;5075378;28;19943;-58
2024/03/01 06:39:29;;;;;;;;;;;9.40;54.90;;;;;;5072284;28;19971;-57
2024/03/01 06:41:58;;;;;;;;;;;9.40;55.00;;;;;;5078426;28;20551;-58
2024/03/01 06:44:27;;;;;;;;;;;9.50;55.10;;;;;;5075345;27;19932;-55
2024/03/01 06:46:55;;;;;;;;;;;9.50;55.20;;;;;;5063688;27;19961;-54
2024/03/01 06:49:23;;;;;;;;;;;9.60;55.20;;;;;;5064168;27;20072;-54
2024/03/01 06:51:51;;;;;;;;;;;9.70;55.20;;;;;;5072005;28;20366;-54
2024/03/01 06:54:20;;;;;;;;;;;9.90;55.20;;;;;;5072448;27;19993;-55
2024/03/01 06:56:49;;;;;;;;;;;10.00;55.20;;;;;;5072612;27;19936;-56
2024/03/01 06:59:18;;;;;;;;;;;10.10;55.40;;;;;;5069991;27;20591;-56
2024/03/01 07:01:46;;;;;;;;;;;10.30;55.30;;;;;;5082642;27;19940;-55
2024/03/01 07:04:15;;;;;;;;;;;10.40;55.00;;;;;;5081937;28;20050;-54
2024/03/01 07:06:45;;;;;;;;;;;10.60;55.00;;;;;;5085202;28;19930;-53
2024/03/01 07:09:13;;;;;;;;;;;10.70;54.90;;;;;;5079200;28;20377;-55
2024/03/01 07:11:42;;;;;;;;;;;10.80;54.90;;;;;;5068793;28;19939;-51
2024/03/01 07:14:10;;;;;;;;;;;10.90;54.90;;;;;;5078258;28;20022;-54
2024/03/01 07:16:39;;;;;;;;;;;11.00;54.80;;;;;;5078829;28;19928;-56
2024/03/01 07:19:08;;;;;;;;;;;11.10;54.70;;;;;;5076417;27;19938;-49
2024/03/01 07:21:36;;;;;;;;;;;11.20;54.80;;;;;;5084406;27;20042;-52
2024/03/01 07:24:05;;;;;;;;;;;11.40;54.70;;;;;;5082954;28;19932;-56
2024/03/01 07:26:33;;;;;;;;;;;11.40;54.60;;;;;;5078002;27;19955;-53
2024/03/01 07:29:02;;;;;;;;;;;11.50;54.60;;;;;;5077048;28;19934;-52
2024/03/01 07:31:30;;;;;;;;;;;11.60;54.60;;;;;;5066023;28;19924;-53
2024/03/01 07:33:59;;;;;;;;;;;11.70;54.60;;;;;;5080214;27;20001;-49
2024/03/01 07:36:28;;;;;;;;;;;11.80;54.60;;;;;;5076461;28;19932;-53
2024/03/01 07:38:56;;;;;;;;;;;11.90;54.90;;;;;;5066082;28;20453;-55
2024/03/01 07:41:24;;;;;;;;;;;12.00;54.50;;;;;;5072610;27;19925;-59
2024/03/01 07:43:52;;;;;;;;;;;12.10;54.60;;;;;;5077783;27;19932;-55
2024/03/01 07:46:20;;;;;;;;;;;12.20;54.50;;;;;;5067337;27;20600;-55
2024/03/01 07:48:48;;;;;;;;;;;12.40;54.40;;;;;;5072580;28;19935;-55
2024/03/01 07:51:18;;;;;;;;;;;12.50;54.40;;;;;;5067510;27;20342;-55
2024/03/01 07:53:47;;;;;;;;;;;12.60;54.30;;;;;;5079707;27;20018;-51
2024/03/01 07:56:15;;;;;;;;;;;12.70;54.30;;;;;;5087909;28;19927;-55
2024/03/01 07:58:43;;;;;;;;;;;12.70;54.30;;;;;;5079155;28;19974;-58
2024/03/01 08:01:12;;;;;;;;;;;12.80;54.20;;;;;;5075008;28;20588;-55
2024/03/01 08:03:44;;;;;;;;;;;12.90;54.30;;;;;;5059153;28;19928;-55
2024/03/01 08:06:12;;;;;;;;;;;13.00;54.20;;;;;;5075399;27;19942;-57
2024/03/01 08:08:43;;;;;;;;;;;13.10;54.20;;;;;;5088561;28;19932;-55
2024/03/01 08:11:12;;;;;;;;;;;13.30;54.20;;;;;;5072418;27;20011;-52
2024/03/01 08:13:40;;;;;;;;;;;13.40;54.20;;;;;;5083143;27;19953;-56
2024/03/01 08:16:09;;;;;;;;;;;13.50;54.10;;;;;;5083743;28;20482;-56
2024/03/01 08:18:39;;;;;;;;;;;13.60;54.10;;;;;;5082571;28;19942;-52
2024/03/01 08:21:08;;;;;;;;;;;13.70;54.10;;;;;;5080071;28;20033;-56
2024/03/01 08:23:37;;;;;;;;;;;13.80;54.00;;;;;;5072640;27;19950;-56
2024/03/01 08:26:11;;;;;;;;;;;13.90;54.00;;;;;;5088234;27;19928;-56
2024/03/01 08:28:41;;;;;;;;;;;14.00;53.90;;;;;;5081397;27;20008;-58
2024/03/01 08:31:15;;;;;;;;;;;14.10;54.20;;;;;;5079863;28;19928;-55
2024/03/01 08:33:43;;;;;;;;;;;14.30;54.10;;;;;;5083646;28;19994;-55
2024/03/01 08:36:11;;;;;;;;;;;14.40;53.70;;;;;;5081676;28;20027;-56
2024/03/01 08:38:56;;;;;;;;;;;14.30;53.60;;;;;;5082660;28;19928;-53
2024/03/01 08:41:25;;;;;;;;;;;14.40;53.70;;;;;;5067786;28;20404;-55
2024/03/01 08:43:55;;;;;;;;;;;14.50;53.90;;;;;;5070892;28;19927;-52
2024/03/01 08:46:28;;;;;;;;;;;14.60;53.80;;;;;;5073142;28;20034;-56
2024/03/01 08:48:56;;;;;;;;;;;14.70;53.80;;;;;;5073762;28;20017;-55
2024/03/01 08:51:25;;;;;;;;;;;14.80;53.80;;;;;;5066261;28;19928;-50
2024/03/01 08:54:00;;;;;;;;;;;14.90;53.60;;;;;;5065700;28;20098;-53
2024/03/01 08:56:37;;;;;;;;;;;14.90;53.40;;;;;;5060002;28;20348;-53
2024/03/01 08:59:20;;;;;;;;;;;15.00;53.60;;;;;;5073288;28;19928;-55
2024/03/01 09:01:48;;;;;;;;;;;15.20;53.90;;;;;;5073015;28;20065;-54
2024/03/01 09:04:21;;;;;;;;;;;15.40;53.70;;;;;;5070624;28;19959;-51
2024/03/01 09:06:50;;;;;;;;;;;15.60;53.50;;;;;;5078759;28;19943;-53
2024/03/01 09:09:22;;;;;;;;;;;15.70;53.40;;;;;;5067736;28;20394;-52
2024/03/01 09:11:52;;;;;;;;;;;15.80;53.50;;;;;;5071228;28;19978;-54
2024/03/01 09:14:27;;;;;;;;;;;16.00;53.30;;;;;;5065320;27;19928;-55
2024/03/01 09:16:56;;;;;;;;;;;16.10;53.30;;;;;;5076093;28;20377;-53
2024/03/01 09:19:25;;;;;;;;;;;16.30;53.30;;;;;;5072774;28;19934;-55
2024/03/01 09:21:53;;;;;;;;;;;16.30;53.00;;;;;;5082075;28;19939;-55
2024/03/01 09:24:22;;;;;;;;;;;16.40;53.00;;;;;;5087977;28;20436;-54
2024/03/01 09:26:55;;;;;;;;;;;16.50;53.00;;;;;;5090780;27;19950;-55
2024/03/01 09:29:34;;;;;;;;;;;16.60;53.00;;;;;;5082919;28;20616;-47
2024/03/01 09:32:04;;;;;;;;;;;16.60;52.80;;;;;;5080576;28;19955;-52
2024/03/01 09:34:37;;;;;;;;;;;16.60;53.10;;;;;;5079969;28;21241;-56
2024/03/01 09:37:09;;;;;;;;;;;16.70;53.00;;;;;;5083753;28;20075;-53
2024/03/01 09:39:40;;;;;;;;;;;16.70;52.90;;;;;;5084579;28;19934;-54
2024/03/01 09:42:28;;;;;;;;;;;16.70;52.90;;;;;;5088763;27;20461;-52
2024/03/01 09:45:07;;;;;;;;;;;16.80;53.10;;;;;;5090086;27;20093;-54
2024/03/01 09:47:42;;;;;;;;;;;16.90;53.00;;;;;;5086319;28;19935;-53
2024/03/01 09:50:20;;;;;;;;;;;17.00;53.00;;;;;;5082852;28;19932;-54
2024/03/01 09:52:52;;;;;;;;;;;17.00;52.70;;;;;;5092915;27;20511;-53
2024/03/01 09:55:26;;;;;;;;;;;17.00;52.90;;;;;;5080603;28;19928;-51
2024/03/01 09:58:04;;;;;;;;;;;17.10;52.90;;;;;;5087047;28;19934;-52
2024/03/01 10:00:35;;;;;;;;;;;17.10;52.90;;;;;;5088995;27;19984;-54
2024/03/01 10:03:13;;;;;;;;;;;17.10;52.80;;;;;;5073077;28;19928;-54
2024/03/01 10:05:52;;;;;;;;;;;17.20;52.80;;;;;;5050108;27;19992;-54
2024/03/01 10:08:30;;;;;;;;;;;17.30;52.80;;;;;;5086226;28;19936;-54
2024/03/01 10:11:12;;;;;;;;;;;17.40;52.80;;;;;;5083801;28;19928;-55
2024/03/01 10:13:45;;;;;;;;;;;17.50;52.90;;;;;;5071454;28;19939;-54
2024/03/01 10:16:23;;;;;;;;;;;17.60;52.60;;;;;;5071720;28;19959;-51
2024/03/01 10:19:00;;;;;;;;;;;17.70;52.60;;;;;;5073757;27;19932;-54
2024/03/01 10:21:30;;;;;;;;;;;17.60;53.10;;;;;;5070495;27;19931;-50
2024/03/01 10:24:05;;;;;;;;;;;17.70;52.80;;;;;;5076194;28;20027;-56
2024/03/01 10:26:34;;;;;;;;;;;17.70;52.60;;;;;;5078402;27;19935;-52
2024/03/01 10:29:14;;;;;;;;;;;17.80;52.60;;;;;;5080705;27;19932;-55
2024/03/01 10:31:52;;;;;;;;;;;17.90;52.60;;;;;;5078909;28;19927;-55
2024/03/01 10:34:28;;;;;;;;;;;18.00;52.50;;;;;;5066407;28;19939;-49
2024/03/01 10:36:58;;;;;;;;;;;18.10;52.60;;;;;;5059760;27;19967;-54
2024/03/01 10:39:34;;;;;;;;;;;18.20;52.70;;;;;;5064400;27;19928;-52
2024/03/01 10:42:07;;;;;;;;;;;18.30;52.50;;;;;;5067808;28;19935;-53
2024/03/01 10:44:39;;;;;;;;;;;18.40;52.40;;;;;;5070078;28;19940;-57
2024/03/01 10:47:14;;;;;;;;;;;18.60;52.50;;;;;;5052680;28;19961;-56
2024/03/01 10:49:57;;;;;;;;;;;18.80;52.30;;;;;;5072004;27;20041;-53
2024/03/01 10:52:27;;;;;;;;;;;18.90;52.30;;;;;;5084776;27;19934;-54
2024/03/01 10:54:57;;;;;;;;;;;19.00;52.20;;;;;;5076243;28;19932;-54
2024/03/01 10:57:26;;;;;;;;;;;19.10;52.20;;;;;;5072011;27;20293;-57
2024/03/01 10:59:56;;;;;;;;;;;19.20;52.30;;;;;;5078157;27;19939;-58
2024/03/01 11:02:28;;;;;;;;;;;19.30;52.00;;;;;;5082317;27;19928;-51
2024/03/01 11:05:02;;;;;;;;;;;19.30;51.90;;;;;;5068434;28;19985;-55
2024/03/01 11:07:35;;;;;;;;;;;19.30;51.80;;;;;;5075201;28;20921;-54
2024/03/01 11:10:06;;;;;;;;;;;19.30;51.90;;;;;;5037301;27;19932;-51
2024/03/01 11:12:35;;;;;;;;;;;19.40;51.80;;;;;;5088274;27;20061;-53
2024/03/01 11:15:07;;;;;;;;;;;19.40;51.80;;;;;;5087482;27;19955;-53
2024/03/01 11:17:38;;;;;;;;;;;19.30;51.90;;;;;;5085789;27;20049;-54
2024/03/01 11:20:10;;;;;;;;;;;19.40;52.00;;;;;;5094245;27;19939;-51
2024/03/01 11:22:42;;;;;;;;;;;19.40;51.90;;;;;;5089892;27;19932;-47
2024/03/01 11:25:14;;;;;;;;;;;19.40;51.90;;;;;;5090654;27;19924;-48
2024/03/01 11:27:46;;;;;;;;;;;19.50;52.00;;;;;;5098648;27;19941;-52
2024/03/01 11:30:19;;;;;;;;;;;19.60;51.80;;;;;;5095268;27;21026;-53
2024/03/01 11:32:52;;;;;;;;;;;19.60;51.80;;;;;;5077489;27;19999;-53
2024/03/01 11:35:23;;;;;;;;;;;19.70;51.90;;;;;;5085012;27;19959;-52
2024/03/01 11:37:59;;;;;;;;;;;19.70;51.80;;;;;;5072701;27;19928;-59
2024/03/01 11:40:36;;;;;;;;;;;19.70;51.90;;;;;;5074427;27;19944;-55
2024/03/01 11:43:10;;;;;;;;;;;19.80;51.80;;;;;;5073517;28;19940;-52
2024/03/01 11:45:46;;;;;;;;;;;19.90;51.70;;;;;;5074130;27;19932;-54
2024/03/01 11:48:29;;;;;;;;;;;19.90;51.80;;;;;;5086268;27;20054;-55
2024/03/01 11:51:07;;;;;;;;;;;20.00;51.80;;;;;;5092838;27;20050;-54
2024/03/01 11:53:46;;;;;;;;;;;20.10;51.90;;;;;;5061893;27;20012;-57
2024/03/01 11:56:25;;;;;;;;;;;20.10;51.60;;;;;;5071201;28;20041;-55
2024/03/01 11:59:03;;;;;;;;;;;20.10;51.60;;;;;;5073125;27;20300;-53
2024/03/01 12:01:35;;;;;;;;;;;20.10;51.60;;;;;;5095692;27;19935;-53
2024/03/01 12:04:14;;;;;;;;;;;20.00;51.50;;;;;;5095549;27;19932;-53
2024/03/01 12:06:52;;;;;;;;;;;19.80;51.50;;;;;;5096301;27;19934;-57
2024/03/01 12:09:27;;;;;;;;;;;19.70;51.50;;;;;;5065393;28;19935;-53
2024/03/01 12:12:03;;;;;;;;;;;19.50;51.50;;;;;;5073023;28;19952;-53
2024/03/01 12:14:35;;;;;;;;;;;19.40;51.70;;;;;;5072256;27;19981;-53
2024/03/01 12:17:08;;;;;;;;;;;19.40;51.90;;;;;;5072876;27;19924;-60
2024/03/01 12:19:48;;;;;;;;;;;19.40;51.90;;;;;;5071519;28;19932;-57
2024/03/01 12:22:31;;;;;;;;;;;19.50;52.00;;;;;;5072750;27;19927;-56
2024/03/01 12:25:01;;;;;;;;;;;19.50;51.90;;;;;;5073584;28;19940;-60
2024/03/01 12:27:38;;;;;;;;;;;19.70;52.10;;;;;;5063355;28;21493;-59
2024/03/01 12:30:13;;;;;;;;;;;19.90;52.10;;;;;;5068701;27;19964;-54
2024/03/01 12:32:48;;;;;;;;;;;20.10;52.30;;;;;;5070886;28;20027;-55
2024/03/01 12:35:25;;;;;;;;;;;20.20;51.80;;;;;;5067796;28;20351;-53
2024/03/01 12:38:02;;;;;;;;;;;20.30;51.50;;;;;;5073724;28;19932;-54
2024/03/01 12:40:35;;;;;;;;;;;20.20;51.30;;;;;;5078924;28;19927;-56
2024/03/01 12:43:15;;;;;;;;;;;20.30;51.50;;;;;;5077886;28;20331;-54
2024/03/01 12:46:02;;;;;;;;;;;20.20;51.40;;;;;;5081434;28;21296;-57
2024/03/01 12:48:38;;;;;;;;;;;20.20;51.30;;;;;;5079493;28;19967;-54
2024/03/01 12:51:17;;;;;;;;;;;20.20;51.40;;;;;;5074823;28;19932;-58
2024/03/01 12:54:06;;;;;;;;;;;20.10;51.40;;;;;;5081767;28;20016;-59
2024/03/01 12:56:41;;;;;;;;;;;20.10;51.30;;;;;;5070570;28;20378;-56
2024/03/01 12:59:18;;;;;;;;;;;19.90;51.30;;;;;;4983391;28;19932;-53
2024/03/01 13:01:53;;;;;;;;;;;19.70;51.40;;;;;;5063002;28;20509;-56
2024/03/01 13:04:29;;;;;;;;;;;19.60;51.50;;;;;;5067654;27;20413;-55
2024/03/01 13:07:00;;;;;;;;;;;19.60;51.60;;;;;;5092792;27;20718;-55
2024/03/01 13:09:31;;;;;;;;;;;19.60;52.30;;;;;;5084665;28;20513;-59
2024/03/01 13:12:00;;;;;;;;;;;19.60;51.70;;;;;;5095501;28;19927;-56
2024/03/01 13:14:34;;;;;;;;;;;19.50;51.70;;;;;;5085869;28;19932;-51
2024/03/01 13:17:09;;;;;;;;;;;19.50;51.60;;;;;;5078940;28;19924;-57
2024/03/01 13:19:59;;;;;;;;;;;19.40;51.70;;;;;;5085297;28;19954;-56
2024/03/01 13:22:32;;;;;;;;;;;19.40;51.70;;;;;;5092619;28;20038;-55
2024/03/01 13:25:15;;;;;;;;;;;19.20;51.60;;;;;;5081668;28;20021;-59
2024/03/01 13:27:51;;;;;;;;;;;19.10;51.70;;;;;;5079348;28;19928;-57
2024/03/01 13:30:22;;;;;;;;;;;19.00;51.80;;;;;;5078752;28;19932;-59
2024/03/01 13:33:03;;;;;;;;;;;18.90;52.10;;;;;;5065625;28;19963;-61
2024/03/01 13:35:32;;;;;;;;;;;18.70;51.80;;;;;;5066228;28;19928;-58
2024/03/01 13:38:12;;;;;;;;;;;18.60;52.00;;;;;;5084067;28;19970;-60
2024/03/01 13:40:42;;;;;;;;;;;18.60;52.10;;;;;;5081675;28;20614;-60
2024/03/01 13:43:12;;;;;;;;;;;18.50;52.20;;;;;;5076064;28;19967;-58
2024/03/01 13:45:44;;;;;;;;;;;18.40;52.00;;;;;;5086218;28;20466;-59
2024/03/01 13:48:21;;;;;;;;;;;18.30;52.00;;;;;;5083937;28;19931;-59
2024/03/01 13:50:52;;;;;;;;;;;18.20;52.20;;;;;;5059897;28;20006;-61
2024/03/01 13:53:22;;;;;;;;;;;18.10;52.20;;;;;;5074200;28;20528;-59
2024/03/01 13:55:53;;;;;;;;;;;17.90;52.10;;;;;;5083091;28;19935;-61
2024/03/01 13:58:21;;;;;;;;;;;17.80;52.10;;;;;;5067161;28;19932;-59
2024/03/01 14:00:51;;;;;;;;;;;17.70;52.40;;;;;;5082278;28;20166;-59
2024/03/01 14:03:19;;;;;;;;;;;17.50;52.30;;;;;;5061860;28;19932;-59
2024/03/01 14:05:50;;;;;;;;;;;17.50;52.40;;;;;;5087121;27;19932;-56
2024/03/01 14:08:20;;;;;;;;;;;17.40;52.50;;;;;;5082037;27;20034;-59
2024/03/01 14:10:52;;;;;;;;;;;17.30;52.50;;;;;;5086633;27;19935;-62
2024/03/01 14:13:24;;;;;;;;;;;17.30;52.80;;;;;;5065854;28;20023;-59
2024/03/01 14:15:57;;;;;;;;;;;17.20;52.50;;;;;;5083660;27;19985;-61
2024/03/01 14:18:26;;;;;;;;;;;17.20;52.80;;;;;;5082503;27;20394;-55
2024/03/01 14:20:56;;;;;;;;;;;17.10;52.60;;;;;;5082877;27;20365;-61
2024/03/01 14:23:26;;;;;;;;;;;17.00;52.60;;;;;;5059619;28;19928;-57
2024/03/01 14:25:56;;;;;;;;;;;16.90;52.60;;;;;;5085548;27;19927;-62
2024/03/01 14:28:26;;;;;;;;;;;16.80;52.70;;;;;;5083859;27;20031;-57
2024/03/01 14:30:54;;;;;;;;;;;16.70;52.80;;;;;;5082401;27;19970;-58
2024/03/01 14:33:23;;;;;;;;;;;16.70;53.00;;;;;;5076017;27;19963;-57
2024/03/01 14:36:01;;;;;;;;;;;16.70;52.90;;;;;;5077321;28;19932;-60
2024/03/01 14:38:30;;;;;;;;;;;16.60;52.90;;;;;;5083422;27;19934;-54